Latest Weather Observations for Willis Island

IDQ60801

Issued at 4:12 pm EST Thursday 23 January 2020 (issued every 10 minutes, with the page automatically refreshed every 10 minutes)

About weather observations | Map of weather stations | Latest weather observations for QLD | Other Formats
Station Details ID: 200283 Name: WILLIS ISLAND Lat: -16.29 Lon: 149.97 Height: 9.29 m
Data from the previous 72 hours. | See also: Recent months at Willis Island
Date/Time
EST
Temp
°C
App
Temp
°C
Dew
Point
°C
Rel
Hum
%
Delta-T
°C
Wind Press
QNH
hPa
Press
MSL
hPa
Rain since
9am
mm
Dir  Spd
km/h
Gust
km/h
Spd
kts
Gust
kts
23/04:00pm 31.1 34.3 23.7 64 5.1 NE 13 15 7 8 1008.2 1008.1 0.0
23/03:30pm 31.9 35.4 24.2 63 5.4 NE 13 17 7 9 1008.4 1008.3 0.0
23/03:00pm 31.2 33.6 23.0 61 5.6 NE 15 17 8 9 1008.7 1008.6 0.0
23/02:30pm 31.8 35.1 23.9 63 5.5 NE 13 15 7 8 1008.8 1008.7 0.0
23/02:00pm 31.3 34.7 23.4 63 5.5 NE 11 15 6 8 1009.4 1009.3 0.0
23/01:30pm 31.9 35.4 24.2 63 5.4 NE 13 13 7 7 1009.6 1009.5 0.0
23/01:00pm 31.6 35.2 23.7 63 5.5 NE 11 15 6 8 1009.9 1009.8 0.0
23/12:30pm 31.7 35.0 23.8 63 5.5 NE 13 17 7 9 1010.4 1010.3 0.0
23/12:00pm 32.0 35.8 24.1 63 5.5 NE 11 15 6 8 1011.0 1010.9 0.0
23/11:30am 31.4 34.5 23.5 63 5.5 NE 13 15 7 8 1011.3 1011.2 0.0
23/11:00am 31.1 34.0 23.2 63 5.4 NE 13 15 7 8 1011.6 1011.5 0.0
23/10:30am 31.2 34.3 23.6 64 5.3 NE 13 17 7 9 1011.9 1011.8 0.0
23/10:00am 31.3 34.8 24.2 66 5.0 NE 13 15 7 8 1012.2 1012.1 0.0
23/09:30am 31.1 35.0 24.2 66 4.8 NE 11 13 6 7 1012.2 1012.1 0.0
23/09:00am 30.7 34.0 23.9 67 4.7 ENE 13 15 7 8 1012.1 1012.0 0.0
23/08:30am 30.5 33.9 24.6 70 4.1 ENE 15 17 8 9 1012.0 1011.9 0.0
23/08:00am 30.2 33.3 24.8 73 3.8 ENE 17 20 9 11 1011.5 1011.4 0.0
23/07:30am 29.9 33.8 24.3 72 3.9 ENE 11 13 6 7 1011.6 1011.5 0.0
23/07:00am 29.4 32.7 24.5 75 3.4 ENE 15 19 8 10 1011.3 1011.2 0.0
23/06:30am 28.7 31.3 24.0 76 3.3 ENE 17 19 9 10 1011.1 1011.0 0.0
23/06:00am 28.3 31.2 23.9 77 3.0 ENE 15 17 8 9 1010.8 1010.7 0.0
23/05:30am 28.3 31.6 23.9 77 3.0 NE 13 17 7 9 1010.5 1010.4 0.0
23/05:00am 28.4 31.7 23.8 76 3.2 ENE 13 17 7 9 1010.1 1010.0 0.0
23/04:30am 28.3 31.0 23.4 75 3.4 ENE 15 19 8 10 1009.7 1009.6 0.0
23/04:00am 28.3 30.2 23.4 75 3.4 ENE 19 20 10 11 1009.4 1009.3 0.0
23/03:30am 28.2 29.8 23.3 75 3.4 ENE 20 24 11 13 1009.4 1009.3 0.0
23/03:00am 28.3 30.6 23.4 75 3.4 ENE 17 20 9 11 1009.4 1009.3 0.0
23/02:30am 28.3 30.6 23.4 75 3.4 ENE 17 19 9 10 1009.8 1009.7 0.0
23/02:00am 28.4 30.7 23.5 75 3.4 ENE 17 20 9 11 1010.0 1009.9 0.0
23/01:30am 28.5 30.8 23.4 74 3.5 ENE 17 19 9 10 1010.4 1010.3 0.0
23/01:00am 28.5 30.9 23.6 75 3.4 ENE 17 19 9 10 1010.6 1010.5 0.0
23/12:30am 28.5 30.8 23.4 74 3.5 ENE 17 20 9 11 1010.9 1010.8 0.0
23/12:00am 28.7 30.6 23.8 75 3.4 NE 20 22 11 12 1010.8 1010.7 0.0
 
Date/Time
EST
Temp
°C
App
Temp
°C
Dew
Point
°C
Rel
Hum
%
Delta-T
°C
Wind Press
QNH
hPa
Press
MSL
hPa
Rain since
9am
mm
Dir  Spd
km/h
Gust
km/h
Spd
kts
Gust
kts
22/11:30pm 28.7 30.5 23.6 74 3.5 NE 20 24 11 13 1011.0 1010.9 0.0
22/11:00pm 28.7 30.2 23.1 71 3.8 ENE 20 24 11 13 1011.2 1011.1 0.0
22/10:30pm 28.8 29.8 23.5 73 3.6 ENE 24 28 13 15 1011.0 1010.9 0.0
22/10:00pm 28.9 29.7 23.1 71 4.0 ENE 24 26 13 14 1010.9 1010.8 0.0
22/09:30pm 28.8 29.4 22.8 70 4.1 ENE 24 28 13 15 1010.6 1010.5 0.0
22/09:00pm 28.8 30.6 23.5 73 3.6 ENE 20 24 11 13 1010.5 1010.4 0.0
22/08:30pm 28.7 29.4 22.9 71 4.0 ENE 24 28 13 15 1010.1 1010.0 0.0
22/08:00pm 28.9 30.7 23.6 73 3.7 ENE 20 26 11 14 1010.0 1009.9 0.0
22/07:30pm 29.1 30.7 23.8 73 3.7 ENE 22 24 12 13 1009.9 1009.8 0.0
22/07:00pm 29.0 30.8 23.2 71 4.0 ENE 19 22 10 12 1009.8 1009.7 0.0
22/06:30pm 29.1 30.8 23.1 70 4.1 ENE 19 20 10 11 1009.3 1009.2 0.0
22/06:00pm 29.4 31.0 22.1 65 4.9 ENE 17 19 9 10 1009.1 1009.0 0.0
22/05:30pm 30.1 32.4 22.0 62 5.5 ENE 13 17 7 9 1009.1 1009.0 0.0
22/05:00pm 30.5 33.1 22.7 63 5.3 ENE 13 17 7 9 1008.9 1008.8 0.0
22/04:30pm 30.8 33.5 22.9 62 5.4 ENE 13 19 7 10 1008.7 1008.6 0.0
22/04:00pm 30.8 33.8 22.7 62 5.5 ENE 11 15 6 8 1008.5 1008.4 0.0
22/03:30pm 31.2 34.3 22.8 61 5.8 ENE 11 13 6 7 1008.9 1008.8 0.0
22/03:00pm 31.3 34.9 23.7 64 5.3 ENE 11 13 6 7 1009.2 1009.1 0.0
22/02:30pm 31.1 34.8 23.2 63 5.4 ENE 9 11 5 6 1009.7 1009.6 0.0
22/02:00pm 31.6 35.7 24.0 64 5.3 ENE 9 11 5 6 1009.9 1009.8 0.0
22/01:30pm 31.2 34.9 23.3 63 5.4 ENE 9 11 5 6 1010.0 1009.9 0.0
22/01:00pm 31.2 34.9 23.3 63 5.5 ENE 9 13 5 7 1010.3 1010.2 0.0
22/12:30pm 31.3 34.7 23.4 63 5.5 ENE 11 13 6 7 1010.7 1010.6 0.0
22/12:00pm 31.4 35.2 23.5 63 5.5 ENE 9 13 5 7 1011.0 1010.9 0.0
22/11:30am 31.1 34.0 23.2 63 5.4 ENE 13 15 7 8 1011.3 1011.2 0.0
22/11:00am 31.3 34.0 24.2 66 5.0 ENE 17 19 9 10 1011.6 1011.5 0.0
22/10:30am 31.4 34.4 24.0 65 5.2 ENE 15 17 8 9 1011.7 1011.6 0.0
22/10:00am 31.6 34.9 24.5 66 5.0 ENE 15 17 8 9 1011.9 1011.8 0.0
22/09:30am 30.8 33.8 24.0 67 4.7 ENE 15 19 8 10 1011.9 1011.8 0.0
22/09:00am 30.5 32.9 23.7 67 4.7 ENE 17 20 9 11 1011.8 1011.7 0.0
22/08:30am 30.3 33.3 24.0 69 4.4 ENE 15 19 8 10 1011.6 1011.5 0.0
22/08:00am 30.0 33.5 24.2 71 4.0 ENE 13 17 7 9 1011.5 1011.4 0.0
22/07:30am 29.7 33.3 24.3 73 3.8 ENE 13 17 7 9 1011.4 1011.3 0.0
22/07:00am 29.2 32.8 24.3 75 3.4 ENE 13 15 7 8 1011.1 1011.0 0.0
22/06:30am 28.5 31.6 24.1 77 3.0 ENE 15 20 8 11 1010.8 1010.7 0.0
22/06:00am 28.5 31.6 24.1 77 3.0 ENE 15 17 8 9 1010.4 1010.3 0.0
22/05:30am 27.9 30.6 23.5 77 3.0 ENE 15 19 8 10 1010.0 1009.9 0.0
22/05:00am 28.2 30.8 24.0 78 2.9 ENE 17 19 9 10 1009.7 1009.6 0.0
22/04:30am 28.2 31.1 23.8 77 3.0 ENE 15 17 8 9 1009.6 1009.5 0.0
22/04:00am 28.2 30.8 24.0 78 2.9 ENE 17 20 9 11 1009.3 1009.2 0.0
22/03:30am 28.1 30.7 23.9 78 2.9 ENE 17 19 9 10 1009.4 1009.3 0.0
22/03:00am 28.1 30.3 23.9 78 2.9 ENE 19 20 10 11 1009.2 1009.1 0.0
22/02:30am 28.1 30.8 24.1 79 2.8 ENE 17 20 9 11 1009.5 1009.4 0.0
22/02:00am 28.1 30.8 24.1 79 2.8 ENE 17 20 9 11 1009.6 1009.5 0.0
22/01:30am 28.2 31.1 24.4 80 2.6 ENE 17 20 9 11 1009.6 1009.5 0.0
22/01:00am 28.5 31.2 24.7 80 2.7 ENE 19 22 10 12 1009.8 1009.7 0.0
22/12:30am 28.4 31.3 24.4 79 2.8 ENE 17 19 9 10 1010.2 1010.1 0.0
22/12:00am 28.5 31.3 24.3 78 2.9 ENE 17 20 9 11 1010.4 1010.3 0.0
 
Date/Time
EST
Temp
°C
App
Temp
°C
Dew
Point
°C
Rel
Hum
%
Delta-T
°C
Wind Press
QNH
hPa
Press
MSL
hPa
Rain since
9am
mm
Dir  Spd
km/h
Gust
km/h
Spd
kts
Gust
kts
21/11:30pm 28.5 31.0 24.5 79 2.8 ENE 19 20 10 11 1010.2 1010.1 0.0
21/11:00pm 28.7 30.7 24.5 78 2.9 ENE 22 24 12 13 1010.2 1010.1 0.0
21/10:30pm 28.8 30.8 24.6 78 2.9 ENE 22 24 12 13 1010.2 1010.1 0.0
21/10:00pm 28.8 30.8 24.6 78 2.9 ENE 22 26 12 14 1010.2 1010.1 0.0
21/09:30pm 28.8 30.8 24.6 78 2.9 NE 22 28 12 15 1010.2 1010.1 0.0
21/09:00pm 28.9 31.6 24.7 78 2.9 NE 19 22 10 12 1010.2 1010.1 0.0
21/08:30pm 28.9 32.2 24.5 77 3.1 NE 15 17 8 9 1010.3 1010.2 0.0
21/08:00pm 28.9 32.0 24.2 76 3.3 NE 15 17 8 9 1010.0 1009.9 0.0
21/07:30pm 29.1 32.0 24.4 76 3.3 NE 17 19 9 10 1009.6 1009.5 0.0
21/07:00pm 29.1 32.7 24.4 76 3.3 NE 13 17 7 9 1009.4 1009.3 0.0
21/06:30pm 29.4 33.1 24.5 75 3.4 NE 13 17 7 9 1009.2 1009.1 0.0
21/06:00pm 30.0 33.6 24.4 72 3.9 NE 13 17 7 9 1008.9 1008.8 0.0
21/05:30pm 30.4 33.6 24.3 70 4.3 NE 15 17 8 9 1008.6 1008.5 0.0
21/05:00pm 30.8 34.4 24.4 68 4.5 NE 13 15 7 8 1008.4 1008.3 0.0
21/04:30pm 30.9 34.2 24.5 68 4.5 NE 15 17 8 9 1008.0 1007.9 0.0
21/04:00pm 31.4 34.6 25.0 69 4.5 NE 17 19 9 10 1007.8 1007.7 0.0
21/03:30pm 31.5 35.2 25.1 69 4.5 NE 15 19 8 10 1007.9 1007.8 0.0
21/03:00pm 31.4 34.3 24.5 67 4.8 NE 17 20 9 11 1008.0 1007.9 0.0
21/02:30pm 31.5 34.4 24.4 66 5.0 NE 17 20 9 11 1008.2 1008.1 0.0
21/02:00pm 32.0 34.7 24.8 65 5.1 NE 19 20 10 11 1008.5 1008.4 0.0
21/01:30pm 31.9 35.1 25.0 67 4.9 NE 17 20 9 11 1009.0 1008.9 0.0
21/01:00pm 32.3 35.8 25.4 67 4.9 NE 17 19 9 10 1009.5 1009.4 0.0
21/12:30pm 32.2 35.7 25.5 67 4.8 NE 17 20 9 11 1009.8 1009.7 0.0
21/12:00pm 31.8 35.0 24.9 67 4.9 NE 17 20 9 11 1010.1 1010.0 0.0
21/11:30am 31.7 35.0 25.1 68 4.7 NE 17 19 9 10 1010.5 1010.4 0.0
21/11:00am 32.2 35.7 25.5 67 4.8 NE 17 19 9 10 1010.5 1010.4 0.0
21/10:30am 31.7 35.1 24.6 66 5.0 NE 15 17 8 9 1010.9 1010.8 0.0
21/10:00am 31.7 35.0 25.1 68 4.7 NE 17 19 9 10 1011.0 1010.9 0.0
21/09:30am 31.5 35.0 25.4 70 4.3 NE 17 19 9 10 1011.0 1010.9 0.0
21/09:00am 30.8 33.5 24.7 70 4.3 NE 19 20 10 11 1011.0 1010.9 0.0
21/08:30am 30.7 33.4 25.1 72 3.9 NE 20 22 11 12 1010.6 1010.5 0.0
21/08:00am 30.2 32.7 24.8 73 3.8 NE 20 24 11 13 1010.6 1010.5 0.0
21/07:30am 29.7 32.2 24.8 75 3.4 NE 20 22 11 12 1010.4 1010.3 0.0
21/07:00am 29.3 31.6 24.4 75 3.4 NE 20 22 11 12 1010.2 1010.1 0.0
21/06:30am 29.1 31.7 25.5 81 2.5 NE 22 24 12 13 1010.0 1009.9 0.0
21/06:00am 28.6 30.8 24.8 80 2.7 ENE 22 24 12 13 1009.4 1009.3 0.0
21/05:30am 28.6 30.5 25.0 81 2.5 NE 24 28 13 15 1008.9 1008.8 0.0
21/05:00am 28.6 30.5 25.0 81 2.5 ENE 24 28 13 15 1008.6 1008.5 0.0
21/04:30am 28.7 31.0 25.1 81 2.5 ENE 22 24 12 13 1008.5 1008.4 0.0
21/04:00am 28.6 30.9 25.0 81 2.5 ENE 22 26 12 14 1008.2 1008.1 0.0
21/03:30am 28.8 30.8 25.2 81 2.5 ENE 24 28 13 15 1007.8 1007.7 0.0
21/03:00am 28.7 30.5 24.9 80 2.7 NE 24 28 13 15 1007.8 1007.7 0.0
21/02:30am 28.7 30.9 24.9 80 2.7 NE 22 24 12 13 1007.8 1007.7 0.0
21/02:00am 28.8 31.2 25.2 81 2.5 NW 22 24 12 13 1008.0 1007.9 0.0
21/01:30am 28.9 31.6 25.1 80 2.7 NW 20 22 11 12 1008.3 1008.2 0.0
21/01:00am 28.9 31.0 25.3 81 2.5 NW 24 28 13 15 1008.4 1008.3 0.0
21/12:30am 29.3 32.3 25.3 79 2.8 NW 19 22 10 12 1008.7 1008.6 0.0
21/12:00am 29.3 32.6 25.1 78 3.0 NW 17 19 9 10 1009.2 1009.1 0.0
 
Date/Time
EST
Temp
°C
App
Temp
°C
Dew
Point
°C
Rel
Hum
%
Delta-T
°C
Wind Press
QNH
hPa
Press
MSL
hPa
Rain since
9am
mm
Dir  Spd
km/h
Gust
km/h
Spd
kts
Gust
kts
20/11:30pm 29.4 32.9 24.9 77 3.2 NW 15 17 8 9 1009.3 1009.2 0.0
20/11:00pm 29.5 33.3 25.3 78 3.0 NW 15 17 8 9 1009.8 1009.7 0.0
20/10:30pm 29.3 33.5 25.3 79 2.8 NW 13 17 7 9 1009.8 1009.7 0.0
20/10:00pm 29.4 34.0 25.4 79 2.8 NW 11 13 6 7 1009.6 1009.5 0.0
20/09:30pm 29.3 33.9 25.3 79 2.8 NW 11 13 6 7 1009.3 1009.2 0.0
20/09:00pm 29.3 34.3 24.8 77 3.2 NW 7 9 4 5 1008.7 1008.6 0.0
20/08:30pm 29.3 34.3 24.8 77 3.1 NW 7 11 4 6 1008.4 1008.3 0.0
20/08:00pm 29.4 34.7 24.9 77 3.2 NW 6 9 3 5 1008.1 1008.0 0.0
20/07:30pm 29.4 35.0 24.9 77 3.2 NW 4 9 2 5 1007.8 1007.7 0.0
20/07:00pm 29.5 35.4 24.1 72 3.8 CALM 0 0 0 0 1007.7 1007.6 0.0
20/06:30pm 30.1 36.1 24.3 71 4.0 CALM 0 0 0 0 1007.3 1007.2 0.0
20/06:00pm 30.6 36.0 24.5 70 4.3 NW 4 7 2 4 1006.8 1006.7 0.0
20/05:30pm 30.8 35.6 24.2 68 4.6 NW 6 7 3 4 1006.4 1006.3 0.0
20/05:00pm 31.0 35.5 23.9 66 4.9 NW 7 9 4 5 1006.4 1006.3 0.0
20/04:30pm 31.4 35.7 24.3 66 5.0 NW 9 13 5 7 1006.3 1006.2 0.0

Other formats

Comma delimited format used in spreadsheet applications
http://www.bom.gov.au/fwo/IDQ60801/IDQ60801.94299.axf

JavaScript Object Notation format (JSON) in row-major order
http://www.bom.gov.au/fwo/IDQ60801/IDQ60801.94299.json

Data quality

Most of these data are generated automatically and are frequently updated. Quality checks on data are not normally performed. It is possible for incorrect values to appear. Refer to information at About Latest Weather Observations and please check the disclaimer before using these data.